createdAt,value
2023-04-14T00:02:36.237Z,9.80
2023-04-14T00:05:38.352Z,9.90
2023-04-14T00:08:40.889Z,9.57
2023-04-14T00:11:42.955Z,9.57
2023-04-14T00:14:45.277Z,9.37
2023-04-14T00:17:47.775Z,9.60
2023-04-14T00:20:50.112Z,9.03
2023-04-14T00:23:52.212Z,10.33
2023-04-14T00:26:54.680Z,11.33
2023-04-14T00:29:56.876Z,10.13
2023-04-14T00:32:59.232Z,10.37
2023-04-14T00:36:03.077Z,10.50
2023-04-14T00:39:05.496Z,11.00
2023-04-14T00:42:07.449Z,10.67
2023-04-14T00:45:10.330Z,10.93
2023-04-14T00:48:14.004Z,11.37
2023-04-14T00:51:16.584Z,17.37
2023-04-14T00:54:20.316Z,11.60
2023-04-14T00:57:22.579Z,12.23
2023-04-14T01:00:24.504Z,12.30
2023-04-14T01:03:26.992Z,12.97
2023-04-14T01:06:29.426Z,13.10
2023-04-14T01:09:32.049Z,11.87
2023-04-14T01:12:57.893Z,13.23
2023-04-14T01:16:04.764Z,13.50
2023-04-14T01:19:32.734Z,13.53
2023-04-14T01:22:39.065Z,14.03
2023-04-14T01:26:08.773Z,13.93
2023-04-14T01:29:29.799Z,15.53
2023-04-14T01:32:36.228Z,13.10
2023-04-14T01:35:49.372Z,13.87
2023-04-14T01:38:53.944Z,15.63
2023-04-14T01:42:02.093Z,14.33
2023-04-14T01:45:11.283Z,14.90
2023-04-14T01:48:20.296Z,15.63
2023-04-14T01:51:23.702Z,16.23
2023-04-14T01:54:27.299Z,16.20
2023-04-14T01:57:29.876Z,15.90
2023-04-14T02:00:34.763Z,15.90
2023-04-14T02:03:38.180Z,16.37
2023-04-14T02:06:41.991Z,16.10
2023-04-14T02:09:45.652Z,15.40
2023-04-14T02:12:50.974Z,16.23
2023-04-14T02:15:53.413Z,15.90
2023-04-14T02:18:55.847Z,15.70
2023-04-14T02:21:58.711Z,15.77
2023-04-14T02:25:01.213Z,15.90
2023-04-14T02:28:09.412Z,15.57
2023-04-14T02:31:16.654Z,16.53
2023-04-14T02:34:24.882Z,15.23
2023-04-14T02:37:34.521Z,17.10
2023-04-14T02:40:41.126Z,16.30
2023-04-14T02:43:58.577Z,15.23
2023-04-14T02:47:07.409Z,15.30
2023-04-14T02:50:14.032Z,15.13
2023-04-14T02:53:21.931Z,16.13
2023-04-14T02:56:25.641Z,15.73
2023-04-14T02:59:29.402Z,14.37
2023-04-14T03:02:32.572Z,16.87
2023-04-14T03:05:35.611Z,20.40
2023-04-14T03:08:38.912Z,18.00
2023-04-14T03:11:43.127Z,15.50
2023-04-14T03:14:45.797Z,16.43
2023-04-14T03:17:54.196Z,16.03
2023-04-14T03:21:00.515Z,15.10
2023-04-14T03:24:03.672Z,15.73
2023-04-14T03:27:12.235Z,15.53
2023-04-14T03:30:15.500Z,15.73
2023-04-14T03:33:22.599Z,14.90
2023-04-14T03:36:26.162Z,14.47
2023-04-14T03:39:34.650Z,15.43
2023-04-14T03:42:38.865Z,14.87
2023-04-14T03:45:41.479Z,14.20
2023-04-14T03:48:46.621Z,15.43
2023-04-14T03:51:53.632Z,19.23
2023-04-14T03:54:59.604Z,13.17
2023-04-14T03:58:03.265Z,14.43
2023-04-14T04:01:06.666Z,14.17
2023-04-14T04:04:09.971Z,14.67
2023-04-14T04:07:13.863Z,14.70
2023-04-14T04:10:17.556Z,15.27
2023-04-14T04:13:21.422Z,16.97
2023-04-14T04:16:26.739Z,15.57
2023-04-14T04:19:29.965Z,15.50
2023-04-14T04:22:35.365Z,15.23
2023-04-14T04:25:38.545Z,15.60
2023-04-14T04:28:41.722Z,14.43
2023-04-14T04:31:43.886Z,15.00
2023-04-14T04:34:48.012Z,14.30
2023-04-14T04:37:50.758Z,14.27
2023-04-14T04:40:52.972Z,14.50
2023-04-14T04:43:56.024Z,14.13
2023-04-14T04:46:58.359Z,13.57
2023-04-14T04:50:00.531Z,13.67
2023-04-14T04:53:02.937Z,14.57
2023-04-14T04:56:05.466Z,13.90
2023-04-14T04:59:07.807Z,14.27
2023-04-14T05:02:09.794Z,14.83
2023-04-14T05:05:12.048Z,14.43
2023-04-14T05:08:15.384Z,13.97
2023-04-14T05:11:17.830Z,14.57
2023-04-14T05:14:19.851Z,15.30
2023-04-14T05:17:22.205Z,14.60
2023-04-14T05:20:24.132Z,15.27
2023-04-14T05:23:26.476Z,14.67
2023-04-14T05:26:48.829Z,14.10
2023-04-14T05:29:51.830Z,14.73
2023-04-14T05:32:54.498Z,13.70
2023-04-14T05:35:56.918Z,14.80
2023-04-14T05:38:58.884Z,15.63
2023-04-14T05:42:01.308Z,13.53
2023-04-14T05:45:04.166Z,14.73
2023-04-14T05:48:06.913Z,15.53
2023-04-14T05:51:08.916Z,15.53
2023-04-14T05:54:11.102Z,19.63
2023-04-14T05:57:13.061Z,16.53
2023-04-14T06:00:15.683Z,15.90
2023-04-14T06:03:17.818Z,15.40
2023-04-14T06:06:20.292Z,14.67
2023-04-14T06:09:22.318Z,15.83
2023-04-14T06:12:24.677Z,16.93
2023-04-14T06:15:29.599Z,15.27
2023-04-14T06:18:31.838Z,15.33
2023-04-14T06:21:33.852Z,15.77
2023-04-14T06:24:36.002Z,17.47
2023-04-14T06:27:38.208Z,18.77
2023-04-14T06:30:40.788Z,17.60
2023-04-14T06:33:44.080Z,16.50
2023-04-14T06:36:47.041Z,19.83
2023-04-14T06:39:49.291Z,19.50
2023-04-14T06:42:51.595Z,19.73
2023-04-14T06:45:53.707Z,18.20
2023-04-14T06:48:55.924Z,19.30
2023-04-14T06:51:57.916Z,20.13
2023-04-14T06:55:00.326Z,19.77
2023-04-14T06:58:02.422Z,19.33
2023-04-14T07:01:06.874Z,18.00
2023-04-14T07:04:09.076Z,25.40
2023-04-14T07:07:11.749Z,30.53
2023-04-14T07:10:14.351Z,26.87
2023-04-14T07:13:16.717Z,27.57
2023-04-14T07:16:18.888Z,23.13
2023-04-14T07:19:21.294Z,19.77
2023-04-14T07:22:23.477Z,21.13
2023-04-14T07:25:26.247Z,21.43
2023-04-14T07:28:28.305Z,19.37
2023-04-14T07:31:33.968Z,19.77
2023-04-14T07:34:35.968Z,21.40
2023-04-14T07:37:38.286Z,20.80
2023-04-14T07:40:42.665Z,20.60
2023-04-14T07:43:45.197Z,23.40
2023-04-14T07:47:03.572Z,22.70
2023-04-14T07:50:34.399Z,24.17
2023-04-14T07:57:10.830Z,24.73
2023-04-14T08:00:15.783Z,24.33
2023-04-14T08:03:18.199Z,24.07
2023-04-14T08:06:20.836Z,23.23
2023-04-14T08:09:23.138Z,26.27
2023-04-14T08:12:25.592Z,22.60
2023-04-14T08:15:27.994Z,24.27
2023-04-14T08:18:30.421Z,24.13
2023-04-14T08:21:33.139Z,24.57
2023-04-14T08:24:37.585Z,24.77
2023-04-14T08:27:40.075Z,25.20
2023-04-14T08:30:42.066Z,23.80
2023-04-14T08:33:44.465Z,23.17
2023-04-14T08:36:47.648Z,23.60
2023-04-14T08:39:49.887Z,27.13
2023-04-14T08:42:51.902Z,24.33
2023-04-14T08:45:55.484Z,23.80
2023-04-14T08:49:05.898Z,23.27
2023-04-14T08:52:13.965Z,23.23
2023-04-14T08:55:19.187Z,23.13
2023-04-14T08:58:23.184Z,23.83
2023-04-14T09:01:25.567Z,23.07
2023-04-14T09:04:29.708Z,22.95
2023-04-14T09:07:32.100Z,26.73
2023-04-14T09:10:57.092Z,22.67
2023-04-14T09:14:01.429Z,24.07
2023-04-14T09:17:03.923Z,22.07
2023-04-14T09:20:37.434Z,24.63
2023-04-14T09:23:29.665Z,25.15
2023-04-14T09:26:32.036Z,26.67
2023-04-14T09:29:35.696Z,17.95
2023-04-14T09:32:38.709Z,19.60
2023-04-14T09:35:49.150Z,17.70
2023-04-14T09:38:52.672Z,17.75
2023-04-14T09:41:54.986Z,17.77
2023-04-14T09:44:59.136Z,16.63
2023-04-14T09:48:08.242Z,17.30
2023-04-14T09:51:10.714Z,18.13
2023-04-14T09:54:12.911Z,16.17
2023-04-14T09:57:26.287Z,17.20
2023-04-14T10:00:31.700Z,15.82
2023-04-14T10:03:39.840Z,18.52
2023-04-14T10:06:42.054Z,16.80
2023-04-14T10:09:48.352Z,17.20
2023-04-14T10:12:53.900Z,16.42
2023-04-14T10:15:56.372Z,16.50
2023-04-14T10:19:00.363Z,17.42
2023-04-14T10:22:06.630Z,15.85
2023-04-14T10:25:13.227Z,17.50
2023-04-14T10:28:16.158Z,16.80
2023-04-14T10:31:26.255Z,17.17
2023-04-14T10:34:32.877Z,16.27
2023-04-14T10:37:35.170Z,16.52
2023-04-14T10:40:53.571Z,15.85
2023-04-14T10:43:55.726Z,16.42
2023-04-14T10:47:02.030Z,15.60
2023-04-14T10:50:17.888Z,14.85
2023-04-14T10:53:20.732Z,14.45
2023-04-14T10:56:24.901Z,16.13
2023-04-14T10:59:38.168Z,14.52
2023-04-14T11:03:04.722Z,13.77
2023-04-14T11:06:07.310Z,15.07
2023-04-14T11:09:33.150Z,13.93
2023-04-14T11:12:43.412Z,15.93
2023-04-14T11:16:01.496Z,14.65
2023-04-14T11:19:03.940Z,16.30
2023-04-14T11:22:06.022Z,15.55
2023-04-14T11:25:12.257Z,14.68
2023-04-14T11:28:16.425Z,15.70
2023-04-14T11:31:29.407Z,15.10
2023-04-14T11:34:51.636Z,11.95
2023-04-14T11:37:58.259Z,11.18
2023-04-14T11:41:35.325Z,10.80
2023-04-14T11:45:19.610Z,11.18
2023-04-14T11:48:24.570Z,10.95
2023-04-14T11:51:33.725Z,10.32
2023-04-14T11:54:39.744Z,9.05
2023-04-14T11:57:47.272Z,9.70
2023-04-14T12:00:59.170Z,10.35
2023-04-14T12:04:03.145Z,10.80
2023-04-14T12:07:11.531Z,11.32
2023-04-14T12:10:29.213Z,10.35
2023-04-14T12:14:05.005Z,10.32
2023-04-14T12:17:49.613Z,9.70
2023-04-14T12:21:09.762Z,10.18
2023-04-14T12:24:55.263Z,10.85
2023-04-14T12:28:20.976Z,8.95
2023-04-14T12:31:45.102Z,9.48
2023-04-14T12:34:57.984Z,8.63
2023-04-14T12:38:22.220Z,7.90
2023-04-14T12:41:32.027Z,7.82
2023-04-14T12:44:43.341Z,7.93
2023-04-14T12:48:08.910Z,9.75
2023-04-14T12:52:27.491Z,9.02
2023-04-14T12:57:05.535Z,8.43
2023-04-14T13:01:45.777Z,8.45
2023-04-14T13:06:35.756Z,9.05
2023-04-14T13:10:56.289Z,9.45
2023-04-14T13:14:33.508Z,8.90
2023-04-14T13:18:03.966Z,9.43
2023-04-14T13:21:43.248Z,8.80
2023-04-14T13:25:04.585Z,9.63
2023-04-14T13:29:32.640Z,8.45
2023-04-14T13:37:34.070Z,7.15
2023-04-14T13:46:02.322Z,8.52
2023-04-14T14:02:40.098Z,8.02
2023-04-14T14:26:47.798Z,7.18
2023-04-14T14:30:14.118Z,6.70
2023-04-14T14:53:19.802Z,7.90
2023-04-14T14:57:36.987Z,8.45
2023-04-14T15:01:06.097Z,7.60
2023-04-14T15:14:07.218Z,8.20
2023-04-14T15:26:28.175Z,10.07
2023-04-14T15:31:21.661Z,9.50
2023-04-14T15:45:12.747Z,11.43
2023-04-14T15:50:09.212Z,10.77
2023-04-14T15:58:50.874Z,9.40
2023-04-14T16:02:18.382Z,10.82
2023-04-14T16:09:43.503Z,11.57
2023-04-14T16:13:14.758Z,11.23
2023-04-14T16:17:30.629Z,10.48
2023-04-14T16:25:37.046Z,9.95
2023-04-14T16:29:38.458Z,11.07
2023-04-14T16:38:24.543Z,10.38
2023-04-14T17:05:05.419Z,10.73
2023-04-14T17:08:12.785Z,10.65
2023-04-14T17:11:46.220Z,11.05
2023-04-14T17:14:58.112Z,10.65
2023-04-14T17:18:04.341Z,9.45
2023-04-14T17:21:13.928Z,8.82
2023-04-14T17:24:23.855Z,9.18
2023-04-14T17:27:52.075Z,8.98
2023-04-14T17:31:23.565Z,10.07
2023-04-14T17:34:32.138Z,10.00
2023-04-14T17:38:05.884Z,9.90
2023-04-14T17:41:23.333Z,10.05
2023-04-14T17:44:38.575Z,8.75
2023-04-14T17:48:38.985Z,9.82
2023-04-14T17:51:57.751Z,9.25
2023-04-14T17:55:16.712Z,9.48
2023-04-14T17:58:27.686Z,8.63
2023-04-14T18:01:49.413Z,8.38
2023-04-14T18:05:00.008Z,8.77
2023-04-14T18:08:16.286Z,8.32
2023-04-14T18:11:32.651Z,6.80
2023-04-14T18:15:33.563Z,8.20
2023-04-14T18:19:00.313Z,8.02
2023-04-14T18:22:41.173Z,7.22
2023-04-14T18:32:45.148Z,8.55
2023-04-14T18:41:13.981Z,8.07
2023-04-14T18:58:56.270Z,7.65
2023-04-14T19:02:17.470Z,6.95
2023-04-14T19:05:35.028Z,7.78
2023-04-14T19:08:37.330Z,7.05
2023-04-14T19:11:54.888Z,7.18
2023-04-14T19:15:12.402Z,6.95
2023-04-14T19:29:12.392Z,6.15
2023-04-14T20:00:07.458Z,6.30
2023-04-14T20:04:10.694Z,5.70
2023-04-14T20:07:10.440Z,5.97
2023-04-14T20:11:08.271Z,6.38
2023-04-14T20:14:25.167Z,6.20
2023-04-14T20:25:51.934Z,5.82
2023-04-14T20:28:59.617Z,6.68
2023-04-14T20:33:58.461Z,6.30
2023-04-14T20:37:34.749Z,7.32
2023-04-14T20:40:37.769Z,6.50
2023-04-14T21:01:26.514Z,6.50
2023-04-14T21:28:10.260Z,6.30
2023-04-14T21:31:54.860Z,7.30
2023-04-14T21:43:03.972Z,6.93
2023-04-14T21:50:23.046Z,7.00
2023-04-14T22:30:36.445Z,6.50
2023-04-14T22:34:49.722Z,5.40
2023-04-14T22:37:56.847Z,6.50
2023-04-14T22:45:21.349Z,6.47
2023-04-14T22:48:34.269Z,6.30
2023-04-14T22:51:55.671Z,5.77
2023-04-14T22:55:15.629Z,5.83
2023-04-14T22:59:10.988Z,6.13
2023-04-14T23:02:50.516Z,6.07
2023-04-14T23:06:33.948Z,6.13
2023-04-14T23:09:51.054Z,6.80
2023-04-14T23:12:52.966Z,6.60
2023-04-14T23:16:46.665Z,6.80
2023-04-14T23:23:58.012Z,7.00
2023-04-14T23:27:33.845Z,6.77
2023-04-14T23:31:10.048Z,7.00
2023-04-14T23:35:02.406Z,6.83
2023-04-14T23:38:24.546Z,6.53
2023-04-14T23:42:03.770Z,6.80
2023-04-14T23:54:02.269Z,6.60
2023-04-14T23:57:24.555Z,7.70
